Archival Weather

Aeroparque Jorge Newbery

Buenos Aires, Argentina (SABE)

Report from: Tuesday, September 19, 2023 1:00 PM -03
Current time: Monday, June 17, 2024 7:12 AM -03

Current weather – Weather history – Daily summaries
Weather forecast

Temperature15.0°C (59.0°F)
Dew point11.0°C (51.8°F)
Winds 15 kts (7.7 m/s, 17.3 mph) East-Southeast (120°)
Visibility6.2 mi. (10 km)
Clouds Few clouds 1,700 ft. (518 m)
Ceiling: Broken clouds 10,000 ft. (3,048 m)
Altimeter30.18 in.Hg (1022 mB)
Relative humidity77 %
Density altitude-110 ft. (-34 m)
Remarks No significant changes expected in the next two hours
Flight conditions Visual Meteorological Conditions
Raw dataSABE 191600Z 12015KT 9999 FEW017 BKN100 15/11 Q1022 NOSIG RMK PP000
An error has occurred. This application may no longer respond until reloaded. Reload 🗙